createdAt,value
2022-07-30T00:00:19.745Z,100272.16
2022-07-30T00:02:55.180Z,100272.50
2022-07-30T00:05:24.037Z,100264.44
2022-07-30T00:07:52.559Z,100263.63
2022-07-30T00:10:23.216Z,100269.06
2022-07-30T00:12:52.008Z,100269.91
2022-07-30T00:15:20.575Z,100271.25
2022-07-30T00:17:49.274Z,100268.28
2022-07-30T00:20:19.372Z,100273.13
2022-07-30T00:22:48.101Z,100271.25
2022-07-30T00:25:16.727Z,100272.53
2022-07-30T00:27:45.530Z,100271.00
2022-07-30T00:30:14.891Z,100271.97
2022-07-30T00:32:45.297Z,100270.38
2022-07-30T00:35:15.410Z,100271.94
2022-07-30T00:37:45.828Z,100257.09
2022-07-30T00:40:15.091Z,100266.84
2022-07-30T00:42:45.628Z,100270.28
2022-07-30T00:45:15.791Z,100273.66
2022-07-30T00:47:44.924Z,100265.72
2022-07-30T00:50:15.031Z,100269.63
2022-07-30T00:52:45.324Z,100264.25
2022-07-30T00:55:15.831Z,100266.84
2022-07-30T00:57:44.502Z,100268.38
2022-07-30T01:00:16.137Z,100268.38
2022-07-30T01:02:45.089Z,100271.34
2022-07-30T01:05:14.889Z,100265.28
2022-07-30T01:07:43.699Z,100267.44
2022-07-30T01:10:15.656Z,100264.91
2022-07-30T01:12:46.942Z,100256.63
2022-07-30T01:15:16.481Z,100262.16
2022-07-30T01:17:52.768Z,100261.56
2022-07-30T01:20:27.282Z,100257.03
2022-07-30T01:23:03.580Z,100264.84
2022-07-30T01:25:57.311Z,100270.31
2022-07-30T01:28:30.031Z,100249.16
2022-07-30T01:31:00.361Z,100268.63
2022-07-30T01:33:31.005Z,100262.81
2022-07-30T01:36:03.126Z,100264.56
2022-07-30T01:38:34.974Z,100259.81
2022-07-30T01:41:07.651Z,100265.94
2022-07-30T01:43:37.357Z,100262.03
2022-07-30T01:46:08.224Z,100265.56
2022-07-30T01:48:41.819Z,100270.19
2022-07-30T01:51:13.851Z,100267.09
2022-07-30T01:53:49.270Z,100276.34
2022-07-30T01:56:24.685Z,100276.09
2022-07-30T01:58:56.906Z,100269.44
2022-07-30T02:01:27.479Z,100272.41
2022-07-30T02:04:02.134Z,100275.13
2022-07-30T02:06:35.531Z,100277.03
2022-07-30T02:09:11.148Z,100275.28
2022-07-30T02:12:04.372Z,100275.63
2022-07-30T02:14:40.345Z,100275.44
2022-07-30T02:17:18.465Z,100277.47
2022-07-30T02:19:54.303Z,100271.31
2022-07-30T02:22:25.711Z,100271.69
2022-07-30T02:24:56.345Z,100281.75
2022-07-30T02:27:29.791Z,100271.91
2022-07-30T02:30:01.635Z,100272.13
2022-07-30T02:32:37.171Z,100277.00
2022-07-30T02:35:11.604Z,100276.63
2022-07-30T02:37:44.480Z,100282.91
2022-07-30T02:40:16.771Z,100289.63
2022-07-30T02:42:48.927Z,100282.28
2022-07-30T02:45:22.635Z,100286.91
2022-07-30T02:47:53.793Z,100290.09
2022-07-30T02:50:25.766Z,100293.66
2022-07-30T02:52:57.360Z,100292.22
2022-07-30T02:55:27.956Z,100298.72
2022-07-30T02:58:00.833Z,100297.53
2022-07-30T03:00:31.156Z,100292.81
2022-07-30T03:03:02.119Z,100300.09
2022-07-30T03:05:31.107Z,100293.13
2022-07-30T03:08:02.223Z,100299.56
2022-07-30T03:10:32.600Z,100300.13
2022-07-30T03:13:03.740Z,100296.38
2022-07-30T03:15:34.253Z,100303.84
2022-07-30T03:18:12.052Z,100297.69
2022-07-30T03:20:41.425Z,100298.22
2022-07-30T03:23:11.521Z,100301.31
2022-07-30T03:25:42.490Z,100300.81
2022-07-30T03:28:14.419Z,100297.19
2022-07-30T03:30:44.145Z,100300.75
2022-07-30T03:33:13.632Z,100308.09
2022-07-30T03:35:45.040Z,100306.44
2022-07-30T03:38:14.512Z,100296.47
2022-07-30T03:40:43.922Z,100308.97
2022-07-30T03:43:32.452Z,100305.91
2022-07-30T03:46:04.134Z,100309.94
2022-07-30T03:48:36.094Z,100307.16
2022-07-30T03:51:05.329Z,100303.97
2022-07-30T03:53:34.401Z,100307.75
2022-07-30T03:56:41.722Z,100311.78
2022-07-30T03:59:16.852Z,100311.31
2022-07-30T04:01:46.082Z,100312.28
2022-07-30T04:04:26.396Z,100319.75
2022-07-30T04:06:56.103Z,100312.31
2022-07-30T04:09:24.933Z,100313.28
2022-07-30T04:11:53.502Z,100309.69
2022-07-30T04:14:28.849Z,100310.91
2022-07-30T04:17:09.217Z,100308.38
2022-07-30T04:19:43.380Z,100307.91
2022-07-30T04:22:16.253Z,100304.47
2022-07-30T04:24:46.507Z,100307.34
2022-07-30T04:27:15.604Z,100306.25
2022-07-30T04:29:45.936Z,100309.25
2022-07-30T04:32:14.416Z,100309.25
2022-07-30T04:35:12.155Z,100306.16
2022-07-30T04:38:15.111Z,100312.09
2022-07-30T04:40:47.326Z,100307.34
2022-07-30T04:43:16.421Z,100309.72
2022-07-30T04:45:46.852Z,100308.78
2022-07-30T04:48:15.496Z,100306.59
2022-07-30T04:50:48.240Z,100318.25
2022-07-30T04:53:20.960Z,100318.97
2022-07-30T04:55:55.412Z,100324.66
2022-07-30T04:58:28.351Z,100322.88
2022-07-30T05:00:59.444Z,100328.81
2022-07-30T05:03:33.050Z,100325.72
2022-07-30T05:06:02.664Z,100326.41
2022-07-30T05:08:39.214Z,100323.88
2022-07-30T05:11:13.364Z,100319.97
2022-07-30T05:13:46.410Z,100329.09
2022-07-30T05:16:18.618Z,100327.66
2022-07-30T05:18:47.286Z,100322.03
2022-07-30T05:21:15.808Z,100325.47
2022-07-30T05:23:50.564Z,100328.03
2022-07-30T05:26:29.501Z,100324.91
2022-07-30T05:28:59.741Z,100330.00
2022-07-30T05:31:38.081Z,100328.22
2022-07-30T05:34:08.097Z,100324.38
2022-07-30T05:36:44.731Z,100332.59
2022-07-30T05:39:16.512Z,100337.59
2022-07-30T05:41:51.456Z,100332.09
2022-07-30T05:44:49.399Z,100326.78
2022-07-30T05:47:21.122Z,100335.34
2022-07-30T05:49:51.655Z,100334.59
2022-07-30T05:52:20.572Z,100336.56
2022-07-30T05:54:49.273Z,100339.31
2022-07-30T05:57:26.807Z,100340.84
2022-07-30T05:59:55.393Z,100328.66
2022-07-30T06:02:46.520Z,100339.44
2022-07-30T06:05:17.824Z,100327.47
2022-07-30T06:07:47.368Z,100331.13
2022-07-30T06:10:17.072Z,100328.81
2022-07-30T06:12:45.613Z,100333.22
2022-07-30T06:15:14.246Z,100322.59
2022-07-30T06:17:45.088Z,100326.50
2022-07-30T06:20:49.637Z,100324.63
2022-07-30T06:23:25.230Z,100313.53
2022-07-30T06:26:17.966Z,100322.09
2022-07-30T06:28:46.984Z,100316.94
2022-07-30T06:31:20.307Z,100320.00
2022-07-30T06:33:48.859Z,100322.06
2022-07-30T06:36:18.916Z,100321.88
2022-07-30T06:39:00.033Z,100327.50
2022-07-30T06:41:47.140Z,100325.41
2022-07-30T06:44:16.610Z,100332.38
2022-07-30T06:46:53.947Z,100329.63
2022-07-30T06:49:26.602Z,100335.75
2022-07-30T06:51:57.138Z,100332.22
2022-07-30T06:54:25.791Z,100327.06
2022-07-30T06:56:54.544Z,100334.28
2022-07-30T06:59:23.158Z,100321.47
2022-07-30T07:02:11.720Z,100325.09
2022-07-30T07:05:00.451Z,100333.34
2022-07-30T07:07:41.158Z,100335.41
2022-07-30T07:10:12.843Z,100330.94
2022-07-30T07:12:47.446Z,100337.03
2022-07-30T07:15:19.216Z,100340.34
2022-07-30T07:17:51.285Z,100341.25
2022-07-30T07:20:34.120Z,100330.59
2022-07-30T07:23:09.184Z,100344.38
2022-07-30T07:25:40.873Z,100336.41
2022-07-30T07:28:12.094Z,100333.34
2022-07-30T07:30:45.348Z,100335.06
2022-07-30T07:33:15.680Z,100338.13
2022-07-30T07:35:48.727Z,100329.94
2022-07-30T07:38:33.122Z,100332.19
2022-07-30T07:41:01.780Z,100329.06
2022-07-30T07:43:31.141Z,100330.31
2022-07-30T07:46:01.672Z,100342.47
2022-07-30T07:48:33.408Z,100329.75
2022-07-30T07:51:46.810Z,100333.13
2022-07-30T07:54:22.029Z,100320.28
2022-07-30T07:56:53.353Z,100315.47
2022-07-30T07:59:39.670Z,100318.91
2022-07-30T08:02:14.914Z,100316.81
2022-07-30T08:04:52.925Z,100312.13
2022-07-30T08:07:45.079Z,100322.94
2022-07-30T08:10:33.766Z,100324.66
2022-07-30T08:13:51.644Z,100319.44
2022-07-30T08:16:32.577Z,100309.47
2022-07-30T08:19:07.382Z,100313.94
2022-07-30T08:21:41.338Z,100304.59
2022-07-30T08:24:10.471Z,100301.34
2022-07-30T08:26:40.409Z,100304.41
2022-07-30T08:29:09.809Z,100294.38
2022-07-30T08:31:40.532Z,100295.19
2022-07-30T08:34:09.240Z,100294.25
2022-07-30T08:36:37.848Z,100291.50
2022-07-30T08:39:06.592Z,100286.53
2022-07-30T08:41:37.096Z,100281.44
2022-07-30T08:44:13.100Z,100284.19
2022-07-30T08:46:46.897Z,100284.19
2022-07-30T08:49:30.464Z,100274.28
2022-07-30T08:52:00.063Z,100280.53
2022-07-30T08:54:45.238Z,100274.53
2022-07-30T08:57:14.346Z,100283.66
2022-07-30T08:59:59.363Z,100271.31
2022-07-30T09:21:58.472Z,100262.41
2022-07-30T09:24:47.815Z,100262.19
2022-07-30T09:27:47.506Z,100267.53
2022-07-30T09:30:47.610Z,100255.69
2022-07-30T09:33:38.066Z,100263.00
2022-07-30T09:36:33.404Z,100270.16
2022-07-30T09:39:37.232Z,100269.28
2022-07-30T09:42:35.066Z,100279.75
2022-07-30T09:45:11.372Z,100278.41
2022-07-30T09:47:48.490Z,100270.53
2022-07-30T09:50:29.472Z,100266.13
2022-07-30T09:53:08.882Z,100277.69
2022-07-30T09:55:41.993Z,100281.00
2022-07-30T09:58:16.613Z,100281.84
2022-07-30T10:00:59.670Z,100278.25
2022-07-30T10:03:52.358Z,100273.28
2022-07-30T10:06:37.778Z,100275.25
2022-07-30T10:09:30.184Z,100259.56
2022-07-30T10:12:00.976Z,100263.16
2022-07-30T10:14:42.708Z,100254.63
2022-07-30T10:17:14.928Z,100251.31
2022-07-30T10:19:56.567Z,100260.66
2022-07-30T10:22:50.718Z,100249.94
2022-07-30T10:25:49.743Z,100254.91
2022-07-30T10:28:52.301Z,100252.97
2022-07-30T10:31:49.128Z,100248.25
2022-07-30T10:34:10.785Z,100249.13
2022-07-30T10:36:42.952Z,100248.00
2022-07-30T10:39:15.402Z,100254.91
2022-07-30T10:41:53.901Z,100265.38
2022-07-30T10:44:52.194Z,100263.97
2022-07-30T10:47:23.734Z,100260.63
2022-07-30T10:50:12.154Z,100262.81
2022-07-30T10:52:54.089Z,100263.41
2022-07-30T10:55:36.985Z,100260.06
2022-07-30T10:58:09.864Z,100266.66
2022-07-30T11:01:00.091Z,100258.69
2022-07-30T11:03:40.316Z,100255.69
2022-07-30T11:06:30.548Z,100255.97
2022-07-30T11:08:59.389Z,100254.06
2022-07-30T11:12:02.116Z,100240.84
2022-07-30T11:15:07.360Z,100236.44
2022-07-30T11:18:04.389Z,100239.75
2022-07-30T11:20:34.139Z,100245.81
2022-07-30T11:23:39.291Z,100247.47
2022-07-30T11:26:14.126Z,100242.50
2022-07-30T11:28:45.773Z,100250.22
2022-07-30T11:31:55.711Z,100246.38
2022-07-30T11:34:30.681Z,100241.41
2022-07-30T11:37:22.204Z,100241.38
2022-07-30T11:40:13.966Z,100233.13
2022-07-30T11:42:43.777Z,100225.41
2022-07-30T11:45:30.718Z,100228.72
2022-07-30T11:48:03.579Z,100224.88
2022-07-30T11:50:36.220Z,100225.94
2022-07-30T11:53:07.628Z,100239.19
2022-07-30T11:55:38.933Z,100222.59
2022-07-30T11:58:09.669Z,100230.06
2022-07-30T12:00:40.140Z,100220.97
2022-07-30T12:03:13.060Z,100226.16
2022-07-30T12:05:43.694Z,100220.91
2022-07-30T12:08:31.737Z,100226.13
2022-07-30T12:11:02.950Z,100231.66
2022-07-30T12:13:44.427Z,100227.47
2022-07-30T12:16:17.728Z,100224.97
2022-07-30T12:18:47.613Z,100221.69
2022-07-30T12:21:17.778Z,100204.09
2022-07-30T12:23:55.773Z,100222.81
2022-07-30T12:26:26.797Z,100219.72
2022-07-30T12:28:57.245Z,100212.88
2022-07-30T12:31:25.804Z,100219.47
2022-07-30T12:33:59.045Z,100225.88
2022-07-30T12:36:32.044Z,100226.66
2022-07-30T12:39:01.762Z,100219.47
2022-07-30T12:41:44.049Z,100209.59
2022-07-30T12:44:32.804Z,100216.19
2022-07-30T12:47:01.746Z,100215.06
2022-07-30T12:49:39.564Z,100203.44
2022-07-30T12:52:27.421Z,100211.41
2022-07-30T12:55:07.029Z,100205.06
2022-07-30T12:58:01.597Z,100197.88
2022-07-30T13:00:36.190Z,100209.25
2022-07-30T13:03:21.501Z,100205.41
2022-07-30T13:05:52.052Z,100204.03
2022-07-30T13:08:53.877Z,100203.38
2022-07-30T13:11:24.415Z,100200.06
2022-07-30T13:13:53.650Z,100209.53
2022-07-30T13:16:22.684Z,100203.81
2022-07-30T13:18:51.099Z,100203.25
2022-07-30T13:21:19.529Z,100206.53
2022-07-30T13:23:48.064Z,100196.06
2022-07-30T13:26:17.924Z,100195.28
2022-07-30T13:28:47.233Z,100201.88
2022-07-30T13:31:15.717Z,100201.91
2022-07-30T13:33:44.297Z,100193.41
2022-07-30T13:36:12.808Z,100194.50
2022-07-30T13:38:41.241Z,100203.31
2022-07-30T13:41:09.919Z,100197.50
2022-07-30T13:43:41.664Z,100197.81
2022-07-30T13:46:10.259Z,100196.41
2022-07-30T13:48:38.943Z,100197.50
2022-07-30T13:51:07.533Z,100192.53
2022-07-30T13:53:36.240Z,100201.13
2022-07-30T13:56:05.436Z,100199.75
2022-07-30T13:58:42.641Z,100200.31
2022-07-30T14:01:17.869Z,100190.66
2022-07-30T14:03:49.930Z,100189.31
2022-07-30T14:06:19.193Z,100190.41
2022-07-30T14:08:47.865Z,100191.25
2022-07-30T14:11:17.010Z,100190.13
2022-07-30T14:13:47.056Z,100183.53
2022-07-30T14:16:42.383Z,100185.16
2022-07-30T14:19:04.274Z,100185.47
2022-07-30T14:21:32.754Z,100171.41
2022-07-30T14:24:01.380Z,100165.63
2022-07-30T14:26:36.222Z,100167.00
2022-07-30T14:29:06.749Z,100168.09
2022-07-30T14:31:35.646Z,100160.97
2022-07-30T14:34:05.593Z,100162.34
2022-07-30T14:36:34.198Z,100155.47
2022-07-30T14:39:04.328Z,100157.66
2022-07-30T14:41:33.486Z,100154.63
2022-07-30T14:44:02.626Z,100150.22
2022-07-30T14:46:32.643Z,100155.19
2022-07-30T14:49:01.126Z,100164.81
2022-07-30T14:51:33.920Z,100158.22
2022-07-30T14:54:03.510Z,100153.78
2022-07-30T14:56:32.073Z,100155.47
2022-07-30T14:59:01.228Z,100164.56
2022-07-30T15:01:29.867Z,100160.44
2022-07-30T15:04:00.153Z,100152.44
2022-07-30T15:06:29.099Z,100145.28
2022-07-30T15:08:57.562Z,100146.91
2022-07-30T15:11:26.039Z,100147.19
2022-07-30T15:13:54.571Z,100145.81
2022-07-30T15:16:23.069Z,100143.06
2022-07-30T15:18:51.561Z,100144.44
2022-07-30T15:21:21.412Z,100141.13
2022-07-30T15:23:50.301Z,100141.94
2022-07-30T15:26:18.701Z,100134.50
2022-07-30T15:28:47.167Z,100131.19
2022-07-30T15:31:15.791Z,100131.75
2022-07-30T15:33:45.110Z,100132.31
2022-07-30T15:36:13.675Z,100132.31
2022-07-30T15:38:43.539Z,100131.19
2022-07-30T15:41:13.882Z,100125.16
2022-07-30T15:43:42.602Z,100124.34
2022-07-30T15:46:11.185Z,100122.69
2022-07-30T15:48:39.877Z,100121.59
2022-07-30T15:51:08.552Z,100124.91
2022-07-30T15:53:37.206Z,100122.16
2022-07-30T15:56:07.390Z,100119.94
2022-07-30T15:58:38.272Z,100123.53
2022-07-30T16:01:10.443Z,100121.06
2022-07-30T16:03:39.056Z,100123.28
2022-07-30T16:06:07.777Z,100118.03
2022-07-30T16:08:36.216Z,100129.88
2022-07-30T16:11:05.226Z,100124.94
2022-07-30T16:13:35.140Z,100128.47
2022-07-30T16:16:04.183Z,100131.81
2022-07-30T16:18:32.585Z,100129.31
2022-07-30T16:21:01.473Z,100128.78
2022-07-30T16:23:36.327Z,100134.53
2022-07-30T16:26:05.741Z,100136.22
2022-07-30T16:28:35.591Z,100136.19
2022-07-30T16:31:05.299Z,100136.75
2022-07-30T16:33:33.855Z,100141.41
2022-07-30T16:36:02.314Z,100134.81
2022-07-30T16:38:31.205Z,100138.97
2022-07-30T16:40:59.679Z,100131.81
2022-07-30T16:43:28.188Z,100139.50
2022-07-30T16:45:58.501Z,100143.63
2022-07-30T16:48:27.746Z,100139.75
2022-07-30T16:50:56.227Z,100138.38
2022-07-30T16:53:24.679Z,100147.47
2022-07-30T16:55:53.181Z,100148.56
2022-07-30T16:58:21.648Z,100146.94
2022-07-30T17:00:58.434Z,100143.88
2022-07-30T17:03:27.169Z,100141.41
2022-07-30T17:05:56.045Z,100156.81
2022-07-30T17:08:25.323Z,100152.13
2022-07-30T17:10:54.127Z,100159.28
2022-07-30T17:13:23.066Z,100154.31
2022-07-30T17:15:51.852Z,100152.94
2022-07-30T17:18:21.739Z,100151.81
2022-07-30T17:20:50.180Z,100152.06
2022-07-30T17:23:18.791Z,100157.28
2022-07-30T17:25:47.239Z,100159.78
2022-07-30T17:28:17.751Z,100163.09
2022-07-30T17:30:46.183Z,100158.72
2022-07-30T17:33:14.631Z,100171.34
2022-07-30T17:35:44.584Z,100165.03
2022-07-30T17:38:12.982Z,100162.53
2022-07-30T17:40:41.532Z,100169.16
2022-07-30T17:43:11.644Z,100166.69
2022-07-30T17:45:42.804Z,100167.25
2022-07-30T17:48:11.378Z,100166.41
2022-07-30T17:50:39.823Z,100177.97
2022-07-30T17:53:09.921Z,100174.63
2022-07-30T17:55:38.560Z,100165.56
2022-07-30T17:58:07.462Z,100169.41
2022-07-30T18:00:36.051Z,100172.66
2022-07-30T18:03:04.919Z,100170.44
2022-07-30T18:05:33.675Z,100169.28
2022-07-30T18:08:02.262Z,100170.41
2022-07-30T18:10:32.470Z,100174.53
2022-07-30T18:13:19.265Z,100175.06
2022-07-30T18:15:49.418Z,100167.59
2022-07-30T18:18:17.887Z,100172.56
2022-07-30T18:20:48.275Z,100175.03
2022-07-30T18:23:19.272Z,100171.47
2022-07-30T18:25:51.797Z,100174.78
2022-07-30T18:28:23.064Z,100176.97
2022-07-30T18:30:51.661Z,100177.78
2022-07-30T18:33:20.212Z,100180.81
2022-07-30T18:35:48.748Z,100182.44
2022-07-30T18:38:17.353Z,100186.59
2022-07-30T18:40:57.692Z,100187.41
2022-07-30T18:43:28.657Z,100190.97
2022-07-30T18:45:58.097Z,100194.84
2022-07-30T18:48:26.907Z,100193.16
2022-07-30T18:50:55.440Z,100197.53
2022-07-30T18:53:24.664Z,100196.72
2022-07-30T18:55:53.162Z,100195.31
2022-07-30T18:58:22.031Z,100197.25
2022-07-30T19:00:51.919Z,100202.47
2022-07-30T19:03:23.073Z,100201.09
2022-07-30T19:05:51.850Z,100204.91
2022-07-30T19:08:20.300Z,100200.81
2022-07-30T19:10:48.949Z,100199.41
2022-07-30T19:13:17.388Z,100203.25
2022-07-30T19:15:46.044Z,100206.25
2022-07-30T19:18:15.893Z,100194.72
2022-07-30T19:20:44.654Z,100192.72
2022-07-30T19:23:13.793Z,100192.44
2022-07-30T19:25:42.307Z,100194.38
2022-07-30T19:28:13.531Z,100188.34
2022-07-30T19:30:42.167Z,100193.25
2022-07-30T19:33:15.434Z,100192.44
2022-07-30T19:35:47.331Z,100192.97
2022-07-30T19:38:21.620Z,100195.72
2022-07-30T19:40:50.869Z,100192.66
2022-07-30T19:43:23.974Z,100195.91
2022-07-30T19:45:53.226Z,100187.09
2022-07-30T19:48:29.105Z,100190.09
2022-07-30T19:53:51.190Z,100187.59
2022-07-30T19:56:20.616Z,100193.34
2022-07-30T19:58:52.072Z,100185.66
2022-07-30T20:01:22.372Z,100189.75
2022-07-30T20:03:51.604Z,100186.69
2022-07-30T20:06:22.222Z,100190.78
2022-07-30T20:08:52.480Z,100202.31
2022-07-30T20:11:35.974Z,100196.53
2022-07-30T20:14:05.508Z,100198.97
2022-07-30T20:16:35.640Z,100209.38
2022-07-30T20:19:04.708Z,100202.75
2022-07-30T20:21:56.415Z,100198.59
2022-07-30T20:24:24.729Z,100199.13
2022-07-30T20:26:54.085Z,100205.13
2022-07-30T20:29:23.505Z,100197.19
2022-07-30T20:31:53.561Z,100205.09
2022-07-30T20:34:25.760Z,100201.78
2022-07-30T20:36:56.720Z,100204.78
2022-07-30T20:39:25.991Z,100216.28
2022-07-30T20:42:08.003Z,100214.88
2022-07-30T20:44:38.305Z,100218.41
2022-07-30T20:47:08.184Z,100218.69
2022-07-30T20:49:37.301Z,100216.19
2022-07-30T20:52:09.765Z,100208.47
2022-07-30T20:54:43.725Z,100215.28
2022-07-30T20:57:15.715Z,100217.72
2022-07-30T20:59:48.805Z,100217.66
2022-07-30T21:02:17.401Z,100223.41
2022-07-30T21:04:59.406Z,100218.44
2022-07-30T21:07:36.496Z,100219.78
2022-07-30T21:10:07.342Z,100217.53
2022-07-30T21:12:36.679Z,100225.22
2022-07-30T21:15:11.730Z,100219.16
2022-07-30T21:17:52.305Z,100227.56
2022-07-30T21:20:27.452Z,100225.88
2022-07-30T21:23:04.624Z,100224.72
2022-07-30T21:25:33.663Z,100221.94
2022-07-30T21:28:03.259Z,100230.09
2022-07-30T21:30:33.545Z,100222.94
2022-07-30T21:33:02.059Z,100215.81
2022-07-30T21:35:31.692Z,100225.13
2022-07-30T21:38:02.319Z,100224.53
2022-07-30T21:40:31.697Z,100227.78
2022-07-30T21:43:00.176Z,100231.03
2022-07-30T21:45:38.712Z,100227.72
2022-07-30T21:48:10.741Z,100225.50
2022-07-30T21:50:40.147Z,100224.66
2022-07-30T21:53:10.135Z,100232.31
2022-07-30T21:55:53.240Z,100230.06
2022-07-30T21:58:25.867Z,100228.09
2022-07-30T22:01:17.862Z,100231.94
2022-07-30T22:04:01.255Z,100222.53
2022-07-30T22:06:33.897Z,100226.88
2022-07-30T22:09:10.080Z,100222.44
2022-07-30T22:11:48.404Z,100228.44
2022-07-30T22:14:16.901Z,100228.69
2022-07-30T22:16:46.458Z,100233.84
2022-07-30T22:19:15.539Z,100231.38
2022-07-30T22:21:47.573Z,100227.22
2022-07-30T22:24:29.264Z,100228.81
2022-07-30T22:27:01.715Z,100233.97
2022-07-30T22:29:43.047Z,100240.75
2022-07-30T22:32:12.048Z,100234.97
2022-07-30T22:34:40.501Z,100230.81
2022-07-30T22:39:59.080Z,100233.22
2022-07-30T22:42:27.877Z,100237.03
2022-07-30T22:44:56.624Z,100238.13
2022-07-30T22:47:53.912Z,100235.63
2022-07-30T22:54:02.759Z,100238.84
2022-07-30T22:55:52.999Z,100250.56
2022-07-30T22:58:26.368Z,100247.00
2022-07-30T23:00:55.379Z,100250.84
2022-07-30T23:03:23.907Z,100249.16
2022-07-30T23:05:56.648Z,100246.09
2022-07-30T23:08:30.290Z,100252.91
2022-07-30T23:11:01.161Z,100245.19
2022-07-30T23:12:15.155Z,100187.88
2022-07-30T23:12:30.585Z,100245.75
2022-07-30T23:12:31.317Z,100238.47
2022-07-30T23:13:30.584Z,100250.91
2022-07-30T23:15:59.166Z,100251.16
2022-07-30T23:18:27.617Z,100252.25
2022-07-30T23:21:00.282Z,100253.78
2022-07-30T23:23:30.776Z,100255.97
2022-07-30T23:26:04.307Z,100255.38
2022-07-30T23:28:32.954Z,100256.72
2022-07-30T23:31:01.824Z,100244.91
2022-07-30T23:33:30.722Z,100249.00
2022-07-30T23:36:00.330Z,100259.13
2022-07-30T23:38:29.071Z,100254.13
2022-07-30T23:41:01.514Z,100252.41
2022-07-30T23:43:31.447Z,100258.16
2022-07-30T23:46:00.051Z,100262.47
2022-07-30T23:48:29.414Z,100265.69
2022-07-30T23:50:58.033Z,100262.63
2022-07-30T23:53:27.021Z,100266.66
2022-07-30T23:55:55.511Z,100269.88
2022-07-30T23:58:24.036Z,100260.84
